Upstream stations:
Downstream station:
SHEF ID: BRIO2 Canadian River at Bridgeport, OK
STATION TYPE:
Regulating: Stage = 15.00, Flow = 8545
STAGE RIV-FLOW
ft cfs
Ccp-Rev Ccp-Rev
(US/Central)
05/17 00:00 12.59 2176
05/17 01:00 12.57 2146
05/17 02:00 12.57 2146
05/17 03:00 12.56 2132
05/17 04:00 12.54 2103
05/17 05:00 12.53 2089
05/17 06:00 12.54 2103
05/17 07:00 12.70 2341
05/17 08:00 12.93 2716
05/17 09:00 13.13 3073
05/17 10:00 13.05 2927
05/17 11:00 12.93 2716
05/17 12:00 12.90 2665
05/17 13:00 12.88 2631
05/17 14:00 12.84 2565
05/17 15:00 12.83 2548
05/17 16:00 12.82 2532
05/17 17:00 12.80 2500
05/17 18:00 12.81 2516
05/17 19:00 12.73 2388
05/17 20:00 12.66 2280
05/17 21:00 12.63 2235
05/17 22:00 9.79 108
05/17 23:00 ---- ----